Akron, NY

9:50 AM EDT on May 23, 2015 (GMT -0400)
Andy's Weather Station on Strickler Road | | Change Station
CLOSE
Current Station
Personal Weather Station
Location: Clarence, NY
Elevation: 686 ft
Nearby Weather Stations

Elev 686 ft 43.00 °N, 78.61 °W | Updated 4 minutes ago

Clear
Clear
55.2 °F
Feels Like 55.2 °F
N
3.1
Wind Variable Wind from SW

Today
High -- | Low -- °F
--% Chance of Precip.
Yesterday
High -- | Low -- °F
Precip. -- in
5:43 AM 8:38 PM
Waxing Crescent, 30% visible
Pressure 30.44 in
Visibility 10.0 miles
Clouds Few 26000 ft
Dew Point 32 °F
Humidity 41%
Rainfall 0.00 in
Snow Depth Not available.
UV 3 out of 12
Pollen 9.30 out of 12
Air Quality Not available.
Flu Activity Widespread
METAR KBUF 231254Z 21009KT 10SM FEW260 09/M03 A3043 RMK AO2 SLP308 T00891033

More Conditions Fewer Conditions

Pressure 30.44 in
Visibility 10.0 miles
Clouds Few 26000 ft
Dew Point 32 °F
Humidity 41%
Rainfall 0.00 in
Snow Depth Not available.
UV 3 out of 12
Pollen 9.30 out of 12
Air Quality Not available.
Flu Activity Widespread
METAR KBUF 231254Z 21009KT 10SM FEW260 09/M03 A3043 RMK AO2 SLP308 T00891033

More Conditions Fewer Conditions

10-Day Weather Forecast

Almanac

Astronomy

May. 23, 2015 Rise Set
Actual Time
Civil Twilight
Nautical Twilight
Astronomical Twilight
Moon
Length of Visible Light
Length of Day
Tomorrow will be .
, % of the Moon is Illuminated

Today's Extremes

State Highs State Lows

Community

WunderPhotos

Upload Photos

1,823,467 photos uploaded!

WunderBlogs® & News

Nearby

Air Quality

  Air Quality AQ Index Pollutant
Not available.

Snow Depth

Station Depth Elevation

Earthquake Activity

City Distance Mag. Time & Date
Minimum magnitude displayed is 2.5.

Coastal Water Temperatures

Place Temperature

Stations

Nearby Weather Stations

Station Location Temp. Windchill Dew Point Humidity Wind Precip. Elev Updated Type